sensor_id;sensor_type;location;lat;lon;timestamp;P1;durP1;ratioP1;P2;durP2;ratioP2
11608;SDS011;5860;52.018;8.536;2023-11-21T00:00:41;33.70;;;18.40;;
11608;SDS011;5860;52.018;8.536;2023-11-21T00:03:08;28.50;;;17.37;;
11608;SDS011;5860;52.018;8.536;2023-11-21T00:05:37;30.40;;;17.67;;
11608;SDS011;5860;52.018;8.536;2023-11-21T00:08:04;36.67;;;18.07;;
11608;SDS011;5860;52.018;8.536;2023-11-21T00:10:32;30.70;;;19.27;;
11608;SDS011;5860;52.018;8.536;2023-11-21T00:12:59;29.90;;;18.87;;
11608;SDS011;5860;52.018;8.536;2023-11-21T00:15:31;31.73;;;19.80;;
11608;SDS011;5860;52.018;8.536;2023-11-21T00:18:03;28.70;;;18.50;;
11608;SDS011;5860;52.018;8.536;2023-11-21T00:20:31;29.87;;;18.57;;
11608;SDS011;5860;52.018;8.536;2023-11-21T00:22:58;34.43;;;18.03;;
11608;SDS011;5860;52.018;8.536;2023-11-21T00:25:25;28.37;;;17.47;;
11608;SDS011;5860;52.018;8.536;2023-11-21T00:27:52;29.00;;;17.50;;
11608;SDS011;5860;52.018;8.536;2023-11-21T00:30:24;33.87;;;17.47;;
11608;SDS011;5860;52.018;8.536;2023-11-21T00:32:56;27.13;;;17.23;;
11608;SDS011;5860;52.018;8.536;2023-11-21T00:35:23;28.87;;;17.17;;
11608;SDS011;5860;52.018;8.536;2023-11-21T00:37:50;29.30;;;16.93;;
11608;SDS011;5860;52.018;8.536;2023-11-21T00:40:17;28.93;;;16.93;;
11608;SDS011;5860;52.018;8.536;2023-11-21T00:42:47;29.37;;;18.00;;
11608;SDS011;5860;52.018;8.536;2023-11-21T00:45:14;31.77;;;17.20;;
11608;SDS011;5860;52.018;8.536;2023-11-21T00:47:41;27.27;;;17.97;;
11608;SDS011;5860;52.018;8.536;2023-11-21T00:50:09;30.07;;;17.10;;
11608;SDS011;5860;52.018;8.536;2023-11-21T00:52:36;32.60;;;18.43;;
11608;SDS011;5860;52.018;8.536;2023-11-21T00:55:04;28.77;;;18.23;;
11608;SDS011;5860;52.018;8.536;2023-11-21T00:57:34;30.77;;;18.10;;
11608;SDS011;5860;52.018;8.536;2023-11-21T01:00:01;29.67;;;17.03;;
11608;SDS011;5860;52.018;8.536;2023-11-21T01:02:34;29.90;;;16.87;;
11608;SDS011;5860;52.018;8.536;2023-11-21T01:05:02;27.10;;;16.40;;
11608;SDS011;5860;52.018;8.536;2023-11-21T01:07:30;33.87;;;18.20;;
11608;SDS011;5860;52.018;8.536;2023-11-21T01:09:57;30.53;;;16.40;;
11608;SDS011;5860;52.018;8.536;2023-11-21T01:12:24;30.27;;;16.77;;
11608;SDS011;5860;52.018;8.536;2023-11-21T01:14:51;31.30;;;18.57;;
11608;SDS011;5860;52.018;8.536;2023-11-21T01:17:18;30.73;;;17.83;;
11608;SDS011;5860;52.018;8.536;2023-11-21T01:19:46;26.43;;;16.23;;
11608;SDS011;5860;52.018;8.536;2023-11-21T01:22:13;30.77;;;17.10;;
11608;SDS011;5860;52.018;8.536;2023-11-21T01:24:40;30.80;;;17.37;;
11608;SDS011;5860;52.018;8.536;2023-11-21T01:27:07;33.33;;;17.20;;
11608;SDS011;5860;52.018;8.536;2023-11-21T01:29:35;28.70;;;17.17;;
11608;SDS011;5860;52.018;8.536;2023-11-21T01:32:02;30.80;;;17.10;;
11608;SDS011;5860;52.018;8.536;2023-11-21T01:34:30;29.17;;;18.23;;
11608;SDS011;5860;52.018;8.536;2023-11-21T01:36:57;33.97;;;18.20;;
11608;SDS011;5860;52.018;8.536;2023-11-21T01:39:24;28.90;;;17.17;;
11608;SDS011;5860;52.018;8.536;2023-11-21T01:41:52;34.93;;;18.03;;
11608;SDS011;5860;52.018;8.536;2023-11-21T01:44:18;32.83;;;17.87;;
11608;SDS011;5860;52.018;8.536;2023-11-21T01:46:46;27.70;;;16.73;;
11608;SDS011;5860;52.018;8.536;2023-11-21T01:49:14;29.03;;;17.60;;
11608;SDS011;5860;52.018;8.536;2023-11-21T01:51:42;28.73;;;16.87;;
11608;SDS011;5860;52.018;8.536;2023-11-21T01:54:15;32.30;;;18.50;;
11608;SDS011;5860;52.018;8.536;2023-11-21T01:56:45;23.80;;;17.63;;
11608;SDS011;5860;52.018;8.536;2023-11-21T01:59:19;26.87;;;18.03;;
11608;SDS011;5860;52.018;8.536;2023-11-21T02:01:48;26.73;;;17.20;;
11608;SDS011;5860;52.018;8.536;2023-11-21T02:04:17;36.60;;;17.97;;
11608;SDS011;5860;52.018;8.536;2023-11-21T02:06:45;30.53;;;17.17;;
11608;SDS011;5860;52.018;8.536;2023-11-21T02:09:12;31.03;;;18.07;;
11608;SDS011;5860;52.018;8.536;2023-11-21T02:11:42;37.00;;;17.67;;
11608;SDS011;5860;52.018;8.536;2023-11-21T02:14:09;31.77;;;17.90;;
11608;SDS011;5860;52.018;8.536;2023-11-21T02:16:36;28.97;;;16.43;;
11608;SDS011;5860;52.018;8.536;2023-11-21T02:19:04;33.97;;;17.30;;
11608;SDS011;5860;52.018;8.536;2023-11-21T02:21:35;34.10;;;16.70;;
11608;SDS011;5860;52.018;8.536;2023-11-21T02:24:07;30.90;;;17.87;;
11608;SDS011;5860;52.018;8.536;2023-11-21T02:26:34;33.03;;;16.60;;
11608;SDS011;5860;52.018;8.536;2023-11-21T02:29:01;29.93;;;16.30;;
11608;SDS011;5860;52.018;8.536;2023-11-21T02:31:31;27.63;;;16.70;;
11608;SDS011;5860;52.018;8.536;2023-11-21T02:33:59;35.43;;;17.23;;
11608;SDS011;5860;52.018;8.536;2023-11-21T02:36:26;32.13;;;17.13;;
11608;SDS011;5860;52.018;8.536;2023-11-21T02:38:53;29.10;;;14.73;;
11608;SDS011;5860;52.018;8.536;2023-11-21T02:41:20;31.93;;;16.47;;
11608;SDS011;5860;52.018;8.536;2023-11-21T02:43:47;29.47;;;16.40;;
11608;SDS011;5860;52.018;8.536;2023-11-21T02:46:14;31.97;;;15.90;;
11608;SDS011;5860;52.018;8.536;2023-11-21T02:48:41;31.63;;;16.33;;
11608;SDS011;5860;52.018;8.536;2023-11-21T02:51:08;31.93;;;15.53;;
11608;SDS011;5860;52.018;8.536;2023-11-21T02:53:35;30.10;;;16.70;;
11608;SDS011;5860;52.018;8.536;2023-11-21T02:56:05;33.90;;;16.43;;
11608;SDS011;5860;52.018;8.536;2023-11-21T02:58:32;35.13;;;16.23;;
11608;SDS011;5860;52.018;8.536;2023-11-21T03:06:22;31.17;;;15.57;;
11608;SDS011;5860;52.018;8.536;2023-11-21T03:08:50;27.27;;;15.70;;
11608;SDS011;5860;52.018;8.536;2023-11-21T03:11:17;31.23;;;16.27;;
11608;SDS011;5860;52.018;8.536;2023-11-21T03:13:44;33.90;;;16.27;;
11608;SDS011;5860;52.018;8.536;2023-11-21T03:16:12;31.47;;;15.93;;
11608;SDS011;5860;52.018;8.536;2023-11-21T03:18:39;30.33;;;16.03;;
11608;SDS011;5860;52.018;8.536;2023-11-21T03:21:07;29.67;;;15.97;;
11608;SDS011;5860;52.018;8.536;2023-11-21T03:23:37;28.67;;;14.43;;
11608;SDS011;5860;52.018;8.536;2023-11-21T03:26:04;35.17;;;15.77;;
11608;SDS011;5860;52.018;8.536;2023-11-21T03:28:32;30.10;;;15.37;;
11608;SDS011;5860;52.018;8.536;2023-11-21T03:30:59;33.97;;;16.27;;
11608;SDS011;5860;52.018;8.536;2023-11-21T03:33:26;30.73;;;16.47;;
11608;SDS011;5860;52.018;8.536;2023-11-21T03:35:53;32.63;;;16.17;;
11608;SDS011;5860;52.018;8.536;2023-11-21T03:38:21;31.87;;;15.47;;
11608;SDS011;5860;52.018;8.536;2023-11-21T03:40:49;38.83;;;16.40;;
11608;SDS011;5860;52.018;8.536;2023-11-21T03:43:16;32.73;;;16.07;;
11608;SDS011;5860;52.018;8.536;2023-11-21T03:45:44;31.97;;;16.93;;
11608;SDS011;5860;52.018;8.536;2023-11-21T03:48:12;33.27;;;16.03;;
11608;SDS011;5860;52.018;8.536;2023-11-21T03:50:39;33.77;;;17.30;;
11608;SDS011;5860;52.018;8.536;2023-11-21T03:53:06;33.67;;;16.43;;
11608;SDS011;5860;52.018;8.536;2023-11-21T03:55:33;39.40;;;17.07;;
11608;SDS011;5860;52.018;8.536;2023-11-21T03:58:00;34.30;;;16.87;;
11608;SDS011;5860;52.018;8.536;2023-11-21T04:00:28;35.83;;;16.97;;
11608;SDS011;5860;52.018;8.536;2023-11-21T04:02:54;33.87;;;17.80;;
11608;SDS011;5860;52.018;8.536;2023-11-21T04:05:22;32.07;;;17.60;;
11608;SDS011;5860;52.018;8.536;2023-11-21T04:07:50;36.70;;;17.37;;
11608;SDS011;5860;52.018;8.536;2023-11-21T04:10:17;30.90;;;16.67;;
11608;SDS011;5860;52.018;8.536;2023-11-21T04:12:45;38.53;;;18.43;;
11608;SDS011;5860;52.018;8.536;2023-11-21T04:15:12;36.37;;;18.97;;
11608;SDS011;5860;52.018;8.536;2023-11-21T04:17:41;31.90;;;17.30;;
11608;SDS011;5860;52.018;8.536;2023-11-21T04:20:08;38.33;;;18.10;;
11608;SDS011;5860;52.018;8.536;2023-11-21T04:22:40;34.47;;;17.23;;
11608;SDS011;5860;52.018;8.536;2023-11-21T04:25:11;33.40;;;18.33;;
11608;SDS011;5860;52.018;8.536;2023-11-21T04:27:42;34.17;;;18.40;;
11608;SDS011;5860;52.018;8.536;2023-11-21T04:30:11;35.37;;;19.70;;
11608;SDS011;5860;52.018;8.536;2023-11-21T04:32:39;36.70;;;19.07;;
11608;SDS011;5860;52.018;8.536;2023-11-21T04:35:06;41.80;;;19.93;;
11608;SDS011;5860;52.018;8.536;2023-11-21T04:37:35;41.03;;;19.90;;
11608;SDS011;5860;52.018;8.536;2023-11-21T04:40:03;39.57;;;21.27;;
11608;SDS011;5860;52.018;8.536;2023-11-21T04:42:34;40.17;;;20.47;;
11608;SDS011;5860;52.018;8.536;2023-11-21T04:45:05;44.37;;;22.23;;
11608;SDS011;5860;52.018;8.536;2023-11-21T04:47:37;44.93;;;22.23;;
11608;SDS011;5860;52.018;8.536;2023-11-21T04:50:05;41.27;;;20.80;;
11608;SDS011;5860;52.018;8.536;2023-11-21T04:52:32;45.30;;;23.17;;
11608;SDS011;5860;52.018;8.536;2023-11-21T04:54:59;46.77;;;23.33;;
11608;SDS011;5860;52.018;8.536;2023-11-21T04:57:29;43.93;;;23.37;;
11608;SDS011;5860;52.018;8.536;2023-11-21T04:59:56;46.93;;;23.40;;
11608;SDS011;5860;52.018;8.536;2023-11-21T05:02:23;41.07;;;23.47;;
11608;SDS011;5860;52.018;8.536;2023-11-21T05:05:01;47.43;;;24.40;;
11608;SDS011;5860;52.018;8.536;2023-11-21T05:07:29;49.83;;;24.87;;
11608;SDS011;5860;52.018;8.536;2023-11-21T05:09:58;44.50;;;24.63;;
11608;SDS011;5860;52.018;8.536;2023-11-21T05:12:25;49.60;;;25.03;;
11608;SDS011;5860;52.018;8.536;2023-11-21T05:14:52;44.53;;;23.30;;
11608;SDS011;5860;52.018;8.536;2023-11-21T05:17:19;38.93;;;22.77;;
11608;SDS011;5860;52.018;8.536;2023-11-21T05:19:49;40.27;;;23.03;;
11608;SDS011;5860;52.018;8.536;2023-11-21T05:22:16;38.00;;;22.53;;
11608;SDS011;5860;52.018;8.536;2023-11-21T05:24:43;41.83;;;23.33;;
11608;SDS011;5860;52.018;8.536;2023-11-21T05:27:10;42.63;;;24.00;;
11608;SDS011;5860;52.018;8.536;2023-11-21T05:29:37;43.80;;;22.77;;
11608;SDS011;5860;52.018;8.536;2023-11-21T05:32:04;39.93;;;23.10;;
11608;SDS011;5860;52.018;8.536;2023-11-21T05:34:31;38.10;;;22.17;;
11608;SDS011;5860;52.018;8.536;2023-11-21T05:36:58;40.40;;;23.60;;
11608;SDS011;5860;52.018;8.536;2023-11-21T05:39:25;43.67;;;23.77;;
11608;SDS011;5860;52.018;8.536;2023-11-21T05:41:54;42.53;;;24.53;;
11608;SDS011;5860;52.018;8.536;2023-11-21T05:44:21;44.23;;;24.27;;
11608;SDS011;5860;52.018;8.536;2023-11-21T05:46:50;34.00;;;21.03;;
11608;SDS011;5860;52.018;8.536;2023-11-21T05:49:17;35.53;;;22.37;;
11608;SDS011;5860;52.018;8.536;2023-11-21T05:51:48;39.90;;;22.03;;
11608;SDS011;5860;52.018;8.536;2023-11-21T05:54:15;36.70;;;22.90;;
11608;SDS011;5860;52.018;8.536;2023-11-21T05:56:41;42.90;;;22.73;;
11608;SDS011;5860;52.018;8.536;2023-11-21T05:59:08;43.57;;;23.70;;
11608;SDS011;5860;52.018;8.536;2023-11-21T06:01:36;35.47;;;21.43;;
11608;SDS011;5860;52.018;8.536;2023-11-21T06:04:05;37.80;;;24.03;;
11608;SDS011;5860;52.018;8.536;2023-11-21T06:06:34;40.03;;;22.27;;
11608;SDS011;5860;52.018;8.536;2023-11-21T06:09:01;38.23;;;22.53;;
11608;SDS011;5860;52.018;8.536;2023-11-21T06:11:28;42.57;;;23.40;;
11608;SDS011;5860;52.018;8.536;2023-11-21T06:13:55;37.87;;;21.23;;
11608;SDS011;5860;52.018;8.536;2023-11-21T06:16:22;39.13;;;21.53;;
11608;SDS011;5860;52.018;8.536;2023-11-21T06:18:50;36.90;;;21.27;;
11608;SDS011;5860;52.018;8.536;2023-11-21T06:21:17;36.97;;;20.97;;
11608;SDS011;5860;52.018;8.536;2023-11-21T06:23:44;38.63;;;22.33;;
11608;SDS011;5860;52.018;8.536;2023-11-21T06:26:11;38.03;;;20.83;;
11608;SDS011;5860;52.018;8.536;2023-11-21T06:28:39;42.33;;;22.53;;
11608;SDS011;5860;52.018;8.536;2023-11-21T06:31:06;37.17;;;21.73;;
11608;SDS011;5860;52.018;8.536;2023-11-21T06:33:33;36.43;;;20.77;;
11608;SDS011;5860;52.018;8.536;2023-11-21T06:36:00;40.03;;;20.90;;
11608;SDS011;5860;52.018;8.536;2023-11-21T06:38:30;43.07;;;21.70;;
11608;SDS011;5860;52.018;8.536;2023-11-21T06:40:58;45.73;;;22.43;;
11608;SDS011;5860;52.018;8.536;2023-11-21T06:43:28;36.63;;;21.53;;
11608;SDS011;5860;52.018;8.536;2023-11-21T06:45:55;44.57;;;23.13;;
11608;SDS011;5860;52.018;8.536;2023-11-21T06:48:22;44.63;;;22.00;;
11608;SDS011;5860;52.018;8.536;2023-11-21T06:50:49;38.17;;;21.73;;
11608;SDS011;5860;52.018;8.536;2023-11-21T06:53:18;37.57;;;22.80;;
11608;SDS011;5860;52.018;8.536;2023-11-21T06:55:45;38.83;;;21.30;;
11608;SDS011;5860;52.018;8.536;2023-11-21T06:58:12;31.27;;;20.87;;
11608;SDS011;5860;52.018;8.536;2023-11-21T07:00:41;40.03;;;21.37;;
11608;SDS011;5860;52.018;8.536;2023-11-21T07:03:12;36.93;;;20.50;;
11608;SDS011;5860;52.018;8.536;2023-11-21T07:05:39;35.63;;;20.30;;
11608;SDS011;5860;52.018;8.536;2023-11-21T07:08:07;40.23;;;21.03;;
11608;SDS011;5860;52.018;8.536;2023-11-21T07:10:34;35.20;;;19.97;;
11608;SDS011;5860;52.018;8.536;2023-11-21T07:13:02;43.00;;;21.60;;
11608;SDS011;5860;52.018;8.536;2023-11-21T07:15:29;41.33;;;20.53;;
11608;SDS011;5860;52.018;8.536;2023-11-21T07:17:56;41.37;;;19.77;;
11608;SDS011;5860;52.018;8.536;2023-11-21T07:20:23;41.40;;;19.10;;
11608;SDS011;5860;52.018;8.536;2023-11-21T07:22:51;36.13;;;17.97;;
11608;SDS011;5860;52.018;8.536;2023-11-21T07:25:18;39.93;;;19.77;;
11608;SDS011;5860;52.018;8.536;2023-11-21T07:27:45;39.80;;;18.67;;
11608;SDS011;5860;52.018;8.536;2023-11-21T07:30:12;35.30;;;17.97;;
11608;SDS011;5860;52.018;8.536;2023-11-21T07:32:39;34.93;;;18.03;;
11608;SDS011;5860;52.018;8.536;2023-11-21T07:35:07;36.23;;;17.93;;
11608;SDS011;5860;52.018;8.536;2023-11-21T07:37:35;37.70;;;18.70;;
11608;SDS011;5860;52.018;8.536;2023-11-21T07:40:02;43.53;;;18.17;;
11608;SDS011;5860;52.018;8.536;2023-11-21T07:42:29;33.73;;;17.03;;
11608;SDS011;5860;52.018;8.536;2023-11-21T07:44:56;35.27;;;16.80;;
11608;SDS011;5860;52.018;8.536;2023-11-21T07:47:23;39.80;;;17.50;;
11608;SDS011;5860;52.018;8.536;2023-11-21T07:49:54;43.47;;;18.20;;
11608;SDS011;5860;52.018;8.536;2023-11-21T07:52:22;33.80;;;15.80;;
11608;SDS011;5860;52.018;8.536;2023-11-21T07:54:50;37.47;;;16.30;;
11608;SDS011;5860;52.018;8.536;2023-11-21T07:57:17;39.93;;;17.13;;
11608;SDS011;5860;52.018;8.536;2023-11-21T07:59:44;34.50;;;16.23;;
11608;SDS011;5860;52.018;8.536;2023-11-21T08:02:11;35.87;;;15.83;;
11608;SDS011;5860;52.018;8.536;2023-11-21T08:04:38;34.37;;;16.03;;
11608;SDS011;5860;52.018;8.536;2023-11-21T08:07:05;36.30;;;15.87;;
11608;SDS011;5860;52.018;8.536;2023-11-21T08:09:32;31.83;;;16.53;;
11608;SDS011;5860;52.018;8.536;2023-11-21T08:12:00;33.17;;;17.43;;
11608;SDS011;5860;52.018;8.536;2023-11-21T08:14:30;32.80;;;16.00;;
11608;SDS011;5860;52.018;8.536;2023-11-21T08:16:57;35.37;;;16.43;;
11608;SDS011;5860;52.018;8.536;2023-11-21T08:19:25;38.03;;;18.50;;
11608;SDS011;5860;52.018;8.536;2023-11-21T08:21:52;32.10;;;16.50;;
11608;SDS011;5860;52.018;8.536;2023-11-21T08:24:21;33.53;;;16.90;;
11608;SDS011;5860;52.018;8.536;2023-11-21T08:26:48;32.20;;;16.13;;
11608;SDS011;5860;52.018;8.536;2023-11-21T08:29:16;30.53;;;15.23;;
11608;SDS011;5860;52.018;8.536;2023-11-21T08:31:42;38.43;;;16.70;;
11608;SDS011;5860;52.018;8.536;2023-11-21T08:34:13;34.43;;;16.37;;
11608;SDS011;5860;52.018;8.536;2023-11-21T08:36:42;30.33;;;15.13;;
11608;SDS011;5860;52.018;8.536;2023-11-21T08:39:09;31.97;;;16.23;;
11608;SDS011;5860;52.018;8.536;2023-11-21T08:41:37;36.93;;;17.23;;
11608;SDS011;5860;52.018;8.536;2023-11-21T08:44:04;33.53;;;17.40;;
11608;SDS011;5860;52.018;8.536;2023-11-21T08:46:33;37.00;;;17.83;;
11608;SDS011;5860;52.018;8.536;2023-11-21T08:49:01;40.27;;;18.23;;
11608;SDS011;5860;52.018;8.536;2023-11-21T08:51:28;35.60;;;17.73;;
11608;SDS011;5860;52.018;8.536;2023-11-21T08:53:55;41.23;;;18.40;;
11608;SDS011;5860;52.018;8.536;2023-11-21T08:56:26;40.23;;;18.23;;
11608;SDS011;5860;52.018;8.536;2023-11-21T08:58:53;37.07;;;18.03;;
11608;SDS011;5860;52.018;8.536;2023-11-21T09:01:20;38.00;;;18.07;;
11608;SDS011;5860;52.018;8.536;2023-11-21T09:03:47;42.80;;;19.43;;
11608;SDS011;5860;52.018;8.536;2023-11-21T09:06:19;35.40;;;17.17;;
11608;SDS011;5860;52.018;8.536;2023-11-21T09:08:46;35.23;;;17.30;;
11608;SDS011;5860;52.018;8.536;2023-11-21T09:11:13;35.97;;;16.57;;
11608;SDS011;5860;52.018;8.536;2023-11-21T09:13:40;33.63;;;15.03;;
11608;SDS011;5860;52.018;8.536;2023-11-21T09:16:07;27.80;;;14.30;;
11608;SDS011;5860;52.018;8.536;2023-11-21T09:18:34;26.83;;;14.07;;
11608;SDS011;5860;52.018;8.536;2023-11-21T09:21:01;24.30;;;13.47;;
11608;SDS011;5860;52.018;8.536;2023-11-21T09:23:28;21.30;;;11.40;;
11608;SDS011;5860;52.018;8.536;2023-11-21T09:25:56;16.20;;;9.63;;
11608;SDS011;5860;52.018;8.536;2023-11-21T09:28:26;15.93;;;10.80;;
11608;SDS011;5860;52.018;8.536;2023-11-21T09:30:54;18.67;;;10.40;;
11608;SDS011;5860;52.018;8.536;2023-11-21T09:33:21;19.90;;;11.87;;
11608;SDS011;5860;52.018;8.536;2023-11-21T09:35:51;20.57;;;11.83;;
11608;SDS011;5860;52.018;8.536;2023-11-21T09:38:19;20.23;;;11.60;;
11608;SDS011;5860;52.018;8.536;2023-11-21T09:40:46;18.50;;;10.37;;
11608;SDS011;5860;52.018;8.536;2023-11-21T09:43:16;19.37;;;11.30;;
11608;SDS011;5860;52.018;8.536;2023-11-21T09:45:45;15.70;;;10.30;;
11608;SDS011;5860;52.018;8.536;2023-11-21T09:48:14;15.87;;;10.30;;
11608;SDS011;5860;52.018;8.536;2023-11-21T09:50:43;14.07;;;9.80;;
11608;SDS011;5860;52.018;8.536;2023-11-21T09:53:16;15.37;;;10.40;;
11608;SDS011;5860;52.018;8.536;2023-11-21T09:55:50;17.03;;;11.13;;
11608;SDS011;5860;52.018;8.536;2023-11-21T09:58:19;17.97;;;11.83;;
11608;SDS011;5860;52.018;8.536;2023-11-21T10:00:49;16.03;;;10.83;;
11608;SDS011;5860;52.018;8.536;2023-11-21T10:03:19;21.90;;;10.87;;
11608;SDS011;5860;52.018;8.536;2023-11-21T10:05:48;18.30;;;9.87;;
11608;SDS011;5860;52.018;8.536;2023-11-21T10:08:17;21.33;;;10.60;;
11608;SDS011;5860;52.018;8.536;2023-11-21T10:10:46;28.67;;;10.57;;
11608;SDS011;5860;52.018;8.536;2023-11-21T10:13:18;17.93;;;10.17;;
11608;SDS011;5860;52.018;8.536;2023-11-21T10:15:49;17.37;;;10.43;;
11608;SDS011;5860;52.018;8.536;2023-11-21T10:18:20;14.80;;;9.03;;
11608;SDS011;5860;52.018;8.536;2023-11-21T10:20:49;22.33;;;8.17;;
11608;SDS011;5860;52.018;8.536;2023-11-21T10:23:20;13.90;;;8.20;;
11608;SDS011;5860;52.018;8.536;2023-11-21T10:25:50;22.33;;;8.53;;
11608;SDS011;5860;52.018;8.536;2023-11-21T10:28:18;14.53;;;7.53;;
11608;SDS011;5860;52.018;8.536;2023-11-21T10:30:48;13.13;;;7.13;;
11608;SDS011;5860;52.018;8.536;2023-11-21T10:33:14;15.60;;;8.10;;
11608;SDS011;5860;52.018;8.536;2023-11-21T10:35:45;12.70;;;8.50;;
11608;SDS011;5860;52.018;8.536;2023-11-21T10:38:13;12.27;;;8.17;;
11608;SDS011;5860;52.018;8.536;2023-11-21T10:40:40;11.63;;;7.80;;
11608;SDS011;5860;52.018;8.536;2023-11-21T10:43:09;13.10;;;7.83;;
11608;SDS011;5860;52.018;8.536;2023-11-21T10:45:58;14.37;;;7.97;;
11608;SDS011;5860;52.018;8.536;2023-11-21T10:48:28;13.00;;;7.63;;
11608;SDS011;5860;52.018;8.536;2023-11-21T10:50:56;9.47;;;6.60;;
11608;SDS011;5860;52.018;8.536;2023-11-21T10:53:33;11.30;;;6.27;;
11608;SDS011;5860;52.018;8.536;2023-11-21T10:56:05;14.63;;;5.33;;
11608;SDS011;5860;52.018;8.536;2023-11-21T10:58:37;9.77;;;6.17;;
11608;SDS011;5860;52.018;8.536;2023-11-21T11:01:08;9.83;;;5.73;;
11608;SDS011;5860;52.018;8.536;2023-11-21T11:03:43;8.27;;;6.20;;
11608;SDS011;5860;52.018;8.536;2023-11-21T11:06:11;13.43;;;6.70;;
11608;SDS011;5860;52.018;8.536;2023-11-21T11:08:39;9.03;;;6.30;;
11608;SDS011;5860;52.018;8.536;2023-11-21T11:11:07;16.73;;;6.20;;
11608;SDS011;5860;52.018;8.536;2023-11-21T11:13:37;10.07;;;6.50;;
11608;SDS011;5860;52.018;8.536;2023-11-21T11:16:09;10.77;;;6.80;;
11608;SDS011;5860;52.018;8.536;2023-11-21T11:18:37;9.67;;;7.47;;
11608;SDS011;5860;52.018;8.536;2023-11-21T11:21:07;11.33;;;7.20;;
11608;SDS011;5860;52.018;8.536;2023-11-21T11:24:08;8.23;;;6.70;;
11608;SDS011;5860;52.018;8.536;2023-11-21T11:26:42;7.70;;;6.60;;
11608;SDS011;5860;52.018;8.536;2023-11-21T11:29:21;10.40;;;7.23;;
11608;SDS011;5860;52.018;8.536;2023-11-21T11:32:43;9.87;;;7.63;;
11608;SDS011;5860;52.018;8.536;2023-11-21T11:35:29;10.27;;;7.83;;
11608;SDS011;5860;52.018;8.536;2023-11-21T11:38:03;11.00;;;7.80;;
11608;SDS011;5860;52.018;8.536;2023-11-21T11:40:46;10.07;;;7.73;;
11608;SDS011;5860;52.018;8.536;2023-11-21T11:43:16;14.40;;;9.80;;
11608;SDS011;5860;52.018;8.536;2023-11-21T11:45:57;13.47;;;9.63;;
11608;SDS011;5860;52.018;8.536;2023-11-21T11:48:34;12.23;;;9.80;;
11608;SDS011;5860;52.018;8.536;2023-11-21T11:53:48;12.63;;;8.60;;
11608;SDS011;5860;52.018;8.536;2023-11-21T11:56:22;11.23;;;7.87;;
11608;SDS011;5860;52.018;8.536;2023-11-21T11:58:49;12.73;;;9.23;;
11608;SDS011;5860;52.018;8.536;2023-11-21T12:01:18;12.93;;;8.27;;
11608;SDS011;5860;52.018;8.536;2023-11-21T12:06:43;11.37;;;8.80;;
11608;SDS011;5860;52.018;8.536;2023-11-21T12:09:20;10.60;;;8.00;;
11608;SDS011;5860;52.018;8.536;2023-11-21T12:11:51;12.50;;;8.30;;
11608;SDS011;5860;52.018;8.536;2023-11-21T12:14:18;12.60;;;8.20;;
11608;SDS011;5860;52.018;8.536;2023-11-21T12:16:45;12.73;;;8.57;;
11608;SDS011;5860;52.018;8.536;2023-11-21T12:19:12;13.63;;;9.03;;
11608;SDS011;5860;52.018;8.536;2023-11-21T12:21:40;9.73;;;8.47;;
11608;SDS011;5860;52.018;8.536;2023-11-21T12:24:15;12.23;;;9.20;;
11608;SDS011;5860;52.018;8.536;2023-11-21T12:26:43;9.50;;;8.07;;
11608;SDS011;5860;52.018;8.536;2023-11-21T12:29:10;11.17;;;8.67;;
11608;SDS011;5860;52.018;8.536;2023-11-21T12:31:37;10.47;;;8.07;;
11608;SDS011;5860;52.018;8.536;2023-11-21T12:34:06;11.80;;;8.90;;
11608;SDS011;5860;52.018;8.536;2023-11-21T12:36:33;10.40;;;8.27;;
11608;SDS011;5860;52.018;8.536;2023-11-21T12:39:01;12.13;;;8.77;;
11608;SDS011;5860;52.018;8.536;2023-11-21T12:41:29;11.40;;;8.87;;
11608;SDS011;5860;52.018;8.536;2023-11-21T12:43:57;10.93;;;7.80;;
11608;SDS011;5860;52.018;8.536;2023-11-21T12:46:25;13.17;;;8.17;;
11608;SDS011;5860;52.018;8.536;2023-11-21T12:48:56;11.27;;;7.80;;
11608;SDS011;5860;52.018;8.536;2023-11-21T12:51:24;9.77;;;7.73;;
11608;SDS011;5860;52.018;8.536;2023-11-21T12:53:51;10.63;;;8.07;;
11608;SDS011;5860;52.018;8.536;2023-11-21T12:56:21;11.33;;;8.30;;
11608;SDS011;5860;52.018;8.536;2023-11-21T12:58:50;9.47;;;7.50;;
11608;SDS011;5860;52.018;8.536;2023-11-21T13:01:20;9.23;;;7.20;;
11608;SDS011;5860;52.018;8.536;2023-11-21T13:03:55;12.50;;;7.47;;
11608;SDS011;5860;52.018;8.536;2023-11-21T13:06:29;12.50;;;7.67;;
11608;SDS011;5860;52.018;8.536;2023-11-21T13:09:00;11.33;;;7.40;;
11608;SDS011;5860;52.018;8.536;2023-11-21T13:11:34;9.77;;;7.73;;
11608;SDS011;5860;52.018;8.536;2023-11-21T13:14:03;11.83;;;7.70;;
11608;SDS011;5860;52.018;8.536;2023-11-21T13:16:30;10.57;;;7.33;;
11608;SDS011;5860;52.018;8.536;2023-11-21T13:18:58;13.00;;;8.07;;
11608;SDS011;5860;52.018;8.536;2023-11-21T13:21:26;10.83;;;6.70;;
11608;SDS011;5860;52.018;8.536;2023-11-21T13:23:53;8.77;;;7.13;;
11608;SDS011;5860;52.018;8.536;2023-11-21T13:26:21;10.33;;;7.13;;
11608;SDS011;5860;52.018;8.536;2023-11-21T13:28:50;8.63;;;6.13;;
11608;SDS011;5860;52.018;8.536;2023-11-21T13:31:17;8.07;;;6.47;;
11608;SDS011;5860;52.018;8.536;2023-11-21T13:33:49;8.00;;;6.40;;
11608;SDS011;5860;52.018;8.536;2023-11-21T13:36:23;10.67;;;6.43;;
11608;SDS011;5860;52.018;8.536;2023-11-21T13:38:52;7.47;;;5.73;;
11608;SDS011;5860;52.018;8.536;2023-11-21T13:41:20;9.63;;;6.60;;
11608;SDS011;5860;52.018;8.536;2023-11-21T13:43:54;7.13;;;5.90;;
11608;SDS011;5860;52.018;8.536;2023-11-21T13:46:30;8.60;;;5.87;;
11608;SDS011;5860;52.018;8.536;2023-11-21T13:49:04;7.40;;;6.10;;
11608;SDS011;5860;52.018;8.536;2023-11-21T13:51:37;7.50;;;5.90;;
11608;SDS011;5860;52.018;8.536;2023-11-21T13:54:09;9.50;;;5.93;;
11608;SDS011;5860;52.018;8.536;2023-11-21T13:56:37;11.07;;;6.77;;
11608;SDS011;5860;52.018;8.536;2023-11-21T13:59:10;10.93;;;7.03;;
11608;SDS011;5860;52.018;8.536;2023-11-21T14:01:48;9.03;;;6.37;;
11608;SDS011;5860;52.018;8.536;2023-11-21T14:04:23;8.13;;;6.03;;
11608;SDS011;5860;52.018;8.536;2023-11-21T14:06:57;8.37;;;6.13;;
11608;SDS011;5860;52.018;8.536;2023-11-21T14:09:27;8.07;;;6.30;;
11608;SDS011;5860;52.018;8.536;2023-11-21T14:12:02;9.50;;;6.17;;
11608;SDS011;5860;52.018;8.536;2023-11-21T14:14:33;8.20;;;6.27;;
11608;SDS011;5860;52.018;8.536;2023-11-21T14:17:00;9.23;;;6.30;;
11608;SDS011;5860;52.018;8.536;2023-11-21T14:19:33;8.50;;;6.40;;
11608;SDS011;5860;52.018;8.536;2023-11-21T14:22:00;8.07;;;6.17;;
11608;SDS011;5860;52.018;8.536;2023-11-21T14:24:27;7.73;;;6.13;;
11608;SDS011;5860;52.018;8.536;2023-11-21T14:26:55;7.30;;;5.70;;
11608;SDS011;5860;52.018;8.536;2023-11-21T14:29:22;7.60;;;5.73;;
11608;SDS011;5860;52.018;8.536;2023-11-21T14:31:50;6.13;;;5.17;;
11608;SDS011;5860;52.018;8.536;2023-11-21T14:34:20;11.27;;;5.47;;
11608;SDS011;5860;52.018;8.536;2023-11-21T14:36:49;7.10;;;5.17;;
11608;SDS011;5860;52.018;8.536;2023-11-21T14:39:17;9.07;;;5.37;;
11608;SDS011;5860;52.018;8.536;2023-11-21T14:41:51;6.87;;;5.20;;
11608;SDS011;5860;52.018;8.536;2023-11-21T14:44:19;6.67;;;5.10;;
11608;SDS011;5860;52.018;8.536;2023-11-21T14:46:50;5.77;;;4.63;;
11608;SDS011;5860;52.018;8.536;2023-11-21T14:49:18;8.27;;;5.37;;
11608;SDS011;5860;52.018;8.536;2023-11-21T14:51:46;8.80;;;5.60;;
11608;SDS011;5860;52.018;8.536;2023-11-21T14:54:29;7.47;;;5.43;;
11608;SDS011;5860;52.018;8.536;2023-11-21T14:57:23;5.57;;;4.43;;
11608;SDS011;5860;52.018;8.536;2023-11-21T14:59:50;6.03;;;5.23;;
11608;SDS011;5860;52.018;8.536;2023-11-21T15:02:18;6.33;;;4.80;;